Terminal Aerodrome Forecast
Issued by NWS Melbourne, FL

Home | Current Version | Previous Version | Text Only | Print | Product List | Glossary On
Versions: 1 2 3 4 5 6 7 8 9 10 11 12 13 14
517
FTUS42 KMLB 291138
TAFDAB
TAF
KDAB 291138Z 2912/3012 VRB03KT P6SM SCT045 SCT200
     FM291400 29006KT P6SM SCT030
     FM291700 VRB04KT P6SM SCT040
     FM291800 08008KT P6SM SCT040
     FM300200 00000KT P6SM SKC=

USA.gov is the U.S. government's official web portal to all federal, state and local government web resources and services.